sensor_id;sensor_type;location;lat;lon;timestamp;P1;P2;P0
54869;PMS5003;40756;-37.950;145.008;2023-06-22T00:00:10;12;9;
54869;PMS5003;40756;-37.950;145.008;2023-06-22T00:02:40;9;7;
54869;PMS5003;40756;-37.950;145.008;2023-06-22T00:05:09;8;8;
54869;PMS5003;40756;-37.950;145.008;2023-06-22T00:07:39;8;8;
54869;PMS5003;40756;-37.950;145.008;2023-06-22T00:10:09;5;5;
54869;PMS5003;40756;-37.950;145.008;2023-06-22T00:12:39;8;7;
54869;PMS5003;40756;-37.950;145.008;2023-06-22T00:15:09;5;5;
54869;PMS5003;40756;-37.950;145.008;2023-06-22T00:17:38;7;5;
54869;PMS5003;40756;-37.950;145.008;2023-06-22T00:20:08;9;8;
54869;PMS5003;40756;-37.950;145.008;2023-06-22T00:22:38;8;7;
54869;PMS5003;40756;-37.950;145.008;2023-06-22T00:25:08;7;6;
54869;PMS5003;40756;-37.950;145.008;2023-06-22T00:27:39;24;24;
54869;PMS5003;40756;-37.950;145.008;2023-06-22T00:30:09;24;23;
54869;PMS5003;40756;-37.950;145.008;2023-06-22T00:32:39;8;8;
54869;PMS5003;40756;-37.950;145.008;2023-06-22T00:35:09;5;5;
54869;PMS5003;40756;-37.950;145.008;2023-06-22T00:37:39;9;9;
54869;PMS5003;40756;-37.950;145.008;2023-06-22T00:40:09;7;7;
54869;PMS5003;40756;-37.950;145.008;2023-06-22T00:42:39;9;8;
54869;PMS5003;40756;-37.950;145.008;2023-06-22T00:45:09;11;10;
54869;PMS5003;40756;-37.950;145.008;2023-06-22T00:47:38;10;10;
54869;PMS5003;40756;-37.950;145.008;2023-06-22T00:50:08;15;15;
54869;PMS5003;40756;-37.950;145.008;2023-06-22T00:52:42;55;55;
54869;PMS5003;40756;-37.950;145.008;2023-06-22T00:55:11;69;69;
54869;PMS5003;40756;-37.950;145.008;2023-06-22T00:57:42;59;58;
54869;PMS5003;40756;-37.950;145.008;2023-06-22T01:00:13;17;17;
54869;PMS5003;40756;-37.950;145.008;2023-06-22T01:02:44;6;6;
54869;PMS5003;40756;-37.950;145.008;2023-06-22T01:05:14;9;9;
54869;PMS5003;40756;-37.950;145.008;2023-06-22T01:07:48;36;36;
54869;PMS5003;40756;-37.950;145.008;2023-06-22T01:10:43;7;7;
54869;PMS5003;40756;-37.950;145.008;2023-06-22T01:13:21;27;27;
54869;PMS5003;40756;-37.950;145.008;2023-06-22T01:15:57;29;29;
54869;PMS5003;40756;-37.950;145.008;2023-06-22T01:18:30;39;38;
54869;PMS5003;40756;-37.950;145.008;2023-06-22T01:21:02;15;15;
54869;PMS5003;40756;-37.950;145.008;2023-06-22T01:23:37;9;9;
54869;PMS5003;40756;-37.950;145.008;2023-06-22T01:26:20;3;3;
54869;PMS5003;40756;-37.950;145.008;2023-06-22T01:29:02;5;5;
54869;PMS5003;40756;-37.950;145.008;2023-06-22T01:31:34;8;8;
54869;PMS5003;40756;-37.950;145.008;2023-06-22T01:34:04;5;5;
54869;PMS5003;40756;-37.950;145.008;2023-06-22T01:36:34;8;8;
54869;PMS5003;40756;-37.950;145.008;2023-06-22T01:39:06;5;5;
54869;PMS5003;40756;-37.950;145.008;2023-06-22T01:41:37;5;4;
54869;PMS5003;40756;-37.950;145.008;2023-06-22T01:44:07;3;3;
54869;PMS5003;40756;-37.950;145.008;2023-06-22T01:46:38;2;2;
54869;PMS5003;40756;-37.950;145.008;2023-06-22T01:49:09;3;3;
54869;PMS5003;40756;-37.950;145.008;2023-06-22T01:51:38;3;3;
54869;PMS5003;40756;-37.950;145.008;2023-06-22T01:54:08;1;1;
54869;PMS5003;40756;-37.950;145.008;2023-06-22T01:56:38;1;1;
54869;PMS5003;40756;-37.950;145.008;2023-06-22T01:59:09;1;1;
54869;PMS5003;40756;-37.950;145.008;2023-06-22T02:01:47;3;3;
54869;PMS5003;40756;-37.950;145.008;2023-06-22T02:04:23;1;1;
54869;PMS5003;40756;-37.950;145.008;2023-06-22T02:07:01;2;2;
54869;PMS5003;40756;-37.950;145.008;2023-06-22T02:09:38;3;3;
54869;PMS5003;40756;-37.950;145.008;2023-06-22T02:12:09;2;1;
54869;PMS5003;40756;-37.950;145.008;2023-06-22T02:14:41;2;2;
54869;PMS5003;40756;-37.950;145.008;2023-06-22T02:17:10;2;2;
54869;PMS5003;40756;-37.950;145.008;2023-06-22T02:19:41;3;2;
54869;PMS5003;40756;-37.950;145.008;2023-06-22T02:22:11;3;3;
54869;PMS5003;40756;-37.950;145.008;2023-06-22T02:24:40;4;3;
54869;PMS5003;40756;-37.950;145.008;2023-06-22T02:27:10;1;1;
54869;PMS5003;40756;-37.950;145.008;2023-06-22T02:29:40;2;2;
54869;PMS5003;40756;-37.950;145.008;2023-06-22T02:32:09;2;1;
54869;PMS5003;40756;-37.950;145.008;2023-06-22T02:34:39;2;2;
54869;PMS5003;40756;-37.950;145.008;2023-06-22T02:37:09;3;3;
54869;PMS5003;40756;-37.950;145.008;2023-06-22T02:39:38;3;3;
54869;PMS5003;40756;-37.950;145.008;2023-06-22T02:42:08;3;3;
54869;PMS5003;40756;-37.950;145.008;2023-06-22T02:44:38;3;2;
54869;PMS5003;40756;-37.950;145.008;2023-06-22T02:47:07;0;0;
54869;PMS5003;40756;-37.950;145.008;2023-06-22T02:49:37;2;2;
54869;PMS5003;40756;-37.950;145.008;2023-06-22T02:52:07;2;2;
54869;PMS5003;40756;-37.950;145.008;2023-06-22T02:54:36;2;2;
54869;PMS5003;40756;-37.950;145.008;2023-06-22T02:57:06;2;1;
54869;PMS5003;40756;-37.950;145.008;2023-06-22T02:59:36;0;0;
54869;PMS5003;40756;-37.950;145.008;2023-06-22T03:02:07;2;2;
54869;PMS5003;40756;-37.950;145.008;2023-06-22T03:04:36;1;1;
54869;PMS5003;40756;-37.950;145.008;2023-06-22T03:07:06;1;1;
54869;PMS5003;40756;-37.950;145.008;2023-06-22T03:09:36;1;1;
54869;PMS5003;40756;-37.950;145.008;2023-06-22T03:12:06;1;1;
54869;PMS5003;40756;-37.950;145.008;2023-06-22T03:14:36;1;1;
54869;PMS5003;40756;-37.950;145.008;2023-06-22T03:17:06;0;0;
54869;PMS5003;40756;-37.950;145.008;2023-06-22T03:19:35;0;0;
54869;PMS5003;40756;-37.950;145.008;2023-06-22T03:22:05;1;1;
54869;PMS5003;40756;-37.950;145.008;2023-06-22T03:24:35;1;1;
54869;PMS5003;40756;-37.950;145.008;2023-06-22T03:27:04;1;1;
54869;PMS5003;40756;-37.950;145.008;2023-06-22T03:29:34;1;1;
54869;PMS5003;40756;-37.950;145.008;2023-06-22T03:32:04;1;1;
54869;PMS5003;40756;-37.950;145.008;2023-06-22T03:34:35;1;1;
54869;PMS5003;40756;-37.950;145.008;2023-06-22T03:37:05;1;1;
54869;PMS5003;40756;-37.950;145.008;2023-06-22T03:39:34;1;1;
54869;PMS5003;40756;-37.950;145.008;2023-06-22T03:42:04;1;1;
54869;PMS5003;40756;-37.950;145.008;2023-06-22T03:44:34;1;1;
54869;PMS5003;40756;-37.950;145.008;2023-06-22T03:47:04;2;2;
54869;PMS5003;40756;-37.950;145.008;2023-06-22T03:49:39;1;1;
54869;PMS5003;40756;-37.950;145.008;2023-06-22T03:52:08;0;0;
54869;PMS5003;40756;-37.950;145.008;2023-06-22T03:54:38;2;2;
54869;PMS5003;40756;-37.950;145.008;2023-06-22T03:57:08;2;2;
54869;PMS5003;40756;-37.950;145.008;2023-06-22T03:59:38;3;3;
54869;PMS5003;40756;-37.950;145.008;2023-06-22T04:02:09;1;1;
54869;PMS5003;40756;-37.950;145.008;2023-06-22T04:04:38;2;2;
54869;PMS5003;40756;-37.950;145.008;2023-06-22T04:07:08;1;1;
54869;PMS5003;40756;-37.950;145.008;2023-06-22T04:09:38;3;3;
54869;PMS5003;40756;-37.950;145.008;2023-06-22T04:12:08;3;3;
54869;PMS5003;40756;-37.950;145.008;2023-06-22T04:14:38;2;1;
54869;PMS5003;40756;-37.950;145.008;2023-06-22T04:17:07;1;1;
54869;PMS5003;40756;-37.950;145.008;2023-06-22T04:19:37;1;1;
54869;PMS5003;40756;-37.950;145.008;2023-06-22T04:22:07;0;0;
54869;PMS5003;40756;-37.950;145.008;2023-06-22T04:24:36;1;1;
54869;PMS5003;40756;-37.950;145.008;2023-06-22T04:27:06;2;2;
54869;PMS5003;40756;-37.950;145.008;2023-06-22T04:29:37;1;1;
54869;PMS5003;40756;-37.950;145.008;2023-06-22T04:32:07;1;1;
54869;PMS5003;40756;-37.950;145.008;2023-06-22T04:34:37;2;2;
54869;PMS5003;40756;-37.950;145.008;2023-06-22T04:37:06;1;1;
54869;PMS5003;40756;-37.950;145.008;2023-06-22T04:39:36;2;2;
54869;PMS5003;40756;-37.950;145.008;2023-06-22T04:42:06;1;1;
54869;PMS5003;40756;-37.950;145.008;2023-06-22T04:44:35;2;2;
54869;PMS5003;40756;-37.950;145.008;2023-06-22T04:47:05;2;2;
54869;PMS5003;40756;-37.950;145.008;2023-06-22T04:49:35;2;2;
54869;PMS5003;40756;-37.950;145.008;2023-06-22T04:52:06;2;2;
54869;PMS5003;40756;-37.950;145.008;2023-06-22T04:54:38;2;2;
54869;PMS5003;40756;-37.950;145.008;2023-06-22T04:57:08;3;2;
54869;PMS5003;40756;-37.950;145.008;2023-06-22T04:59:38;2;2;
54869;PMS5003;40756;-37.950;145.008;2023-06-22T05:02:09;0;0;
54869;PMS5003;40756;-37.950;145.008;2023-06-22T05:04:39;2;2;
54869;PMS5003;40756;-37.950;145.008;2023-06-22T05:07:08;3;2;
54869;PMS5003;40756;-37.950;145.008;2023-06-22T05:09:38;1;1;
54869;PMS5003;40756;-37.950;145.008;2023-06-22T05:12:08;1;1;
54869;PMS5003;40756;-37.950;145.008;2023-06-22T05:14:37;1;1;
54869;PMS5003;40756;-37.950;145.008;2023-06-22T05:17:07;1;1;
54869;PMS5003;40756;-37.950;145.008;2023-06-22T05:19:37;2;2;
54869;PMS5003;40756;-37.950;145.008;2023-06-22T05:22:06;2;2;
54869;PMS5003;40756;-37.950;145.008;2023-06-22T05:24:36;3;3;
54869;PMS5003;40756;-37.950;145.008;2023-06-22T05:27:06;2;2;
54869;PMS5003;40756;-37.950;145.008;2023-06-22T05:29:36;1;1;
54869;PMS5003;40756;-37.950;145.008;2023-06-22T05:32:06;2;2;
54869;PMS5003;40756;-37.950;145.008;2023-06-22T05:34:36;1;1;
54869;PMS5003;40756;-37.950;145.008;2023-06-22T05:37:05;2;2;
54869;PMS5003;40756;-37.950;145.008;2023-06-22T05:39:35;2;2;
54869;PMS5003;40756;-37.950;145.008;2023-06-22T05:42:05;2;2;
54869;PMS5003;40756;-37.950;145.008;2023-06-22T05:44:35;3;3;
54869;PMS5003;40756;-37.950;145.008;2023-06-22T05:47:05;1;1;
54869;PMS5003;40756;-37.950;145.008;2023-06-22T05:49:35;3;3;
54869;PMS5003;40756;-37.950;145.008;2023-06-22T05:52:04;2;2;
54869;PMS5003;40756;-37.950;145.008;2023-06-22T05:54:34;3;3;
54869;PMS5003;40756;-37.950;145.008;2023-06-22T05:57:04;3;3;
54869;PMS5003;40756;-37.950;145.008;2023-06-22T05:59:33;2;2;
54869;PMS5003;40756;-37.950;145.008;2023-06-22T06:02:04;3;3;
54869;PMS5003;40756;-37.950;145.008;2023-06-22T06:04:34;3;3;
54869;PMS5003;40756;-37.950;145.008;2023-06-22T06:07:04;2;2;
54869;PMS5003;40756;-37.950;145.008;2023-06-22T06:09:34;4;4;
54869;PMS5003;40756;-37.950;145.008;2023-06-22T06:12:04;3;3;
54869;PMS5003;40756;-37.950;145.008;2023-06-22T06:14:34;4;4;
54869;PMS5003;40756;-37.950;145.008;2023-06-22T06:17:04;2;2;
54869;PMS5003;40756;-37.950;145.008;2023-06-22T06:19:33;3;3;
54869;PMS5003;40756;-37.950;145.008;2023-06-22T06:22:03;2;2;
54869;PMS5003;40756;-37.950;145.008;2023-06-22T06:24:33;5;4;
54869;PMS5003;40756;-37.950;145.008;2023-06-22T06:27:03;7;6;
54869;PMS5003;40756;-37.950;145.008;2023-06-22T06:29:32;5;5;
54869;PMS5003;40756;-37.950;145.008;2023-06-22T06:32:02;5;5;
54869;PMS5003;40756;-37.950;145.008;2023-06-22T06:34:32;4;4;
54869;PMS5003;40756;-37.950;145.008;2023-06-22T06:37:01;4;3;
54869;PMS5003;40756;-37.950;145.008;2023-06-22T06:39:31;3;3;
54869;PMS5003;40756;-37.950;145.008;2023-06-22T06:42:01;4;3;
54869;PMS5003;40756;-37.950;145.008;2023-06-22T06:44:31;4;3;
54869;PMS5003;40756;-37.950;145.008;2023-06-22T06:47:01;2;2;
54869;PMS5003;40756;-37.950;145.008;2023-06-22T06:49:33;3;3;
54869;PMS5003;40756;-37.950;145.008;2023-06-22T06:52:02;3;3;
54869;PMS5003;40756;-37.950;145.008;2023-06-22T06:54:33;5;5;
54869;PMS5003;40756;-37.950;145.008;2023-06-22T06:57:03;6;6;
54869;PMS5003;40756;-37.950;145.008;2023-06-22T06:59:32;6;6;
54869;PMS5003;40756;-37.950;145.008;2023-06-22T07:02:02;4;4;
54869;PMS5003;40756;-37.950;145.008;2023-06-22T07:04:33;4;4;
54869;PMS5003;40756;-37.950;145.008;2023-06-22T07:07:03;4;4;
54869;PMS5003;40756;-37.950;145.008;2023-06-22T07:09:33;2;2;
54869;PMS5003;40756;-37.950;145.008;2023-06-22T07:12:03;3;3;
54869;PMS5003;40756;-37.950;145.008;2023-06-22T07:14:33;2;2;
54869;PMS5003;40756;-37.950;145.008;2023-06-22T07:17:03;2;2;
54869;PMS5003;40756;-37.950;145.008;2023-06-22T07:19:32;1;1;
54869;PMS5003;40756;-37.950;145.008;2023-06-22T07:22:02;2;2;
54869;PMS5003;40756;-37.950;145.008;2023-06-22T07:24:32;2;2;
54869;PMS5003;40756;-37.950;145.008;2023-06-22T07:27:01;3;3;
54869;PMS5003;40756;-37.950;145.008;2023-06-22T07:29:31;2;2;
54869;PMS5003;40756;-37.950;145.008;2023-06-22T07:32:01;4;4;
54869;PMS5003;40756;-37.950;145.008;2023-06-22T07:34:30;6;6;
54869;PMS5003;40756;-37.950;145.008;2023-06-22T07:37:00;2;2;
54869;PMS5003;40756;-37.950;145.008;2023-06-22T07:39:30;5;5;
54869;PMS5003;40756;-37.950;145.008;2023-06-22T07:41:59;6;4;
54869;PMS5003;40756;-37.950;145.008;2023-06-22T07:44:29;4;4;
54869;PMS5003;40756;-37.950;145.008;2023-06-22T07:46:59;5;3;
54869;PMS5003;40756;-37.950;145.008;2023-06-22T07:49:28;4;3;
54869;PMS5003;40756;-37.950;145.008;2023-06-22T07:51:58;3;2;
54869;PMS5003;40756;-37.950;145.008;2023-06-22T07:54:27;4;4;
54869;PMS5003;40756;-37.950;145.008;2023-06-22T07:56:57;5;5;
54869;PMS5003;40756;-37.950;145.008;2023-06-22T07:59:26;5;5;
54869;PMS5003;40756;-37.950;145.008;2023-06-22T08:01:56;4;4;
54869;PMS5003;40756;-37.950;145.008;2023-06-22T08:04:26;4;4;
54869;PMS5003;40756;-37.950;145.008;2023-06-22T08:06:57;4;4;
54869;PMS5003;40756;-37.950;145.008;2023-06-22T08:09:27;5;4;
54869;PMS5003;40756;-37.950;145.008;2023-06-22T08:11:58;3;3;
54869;PMS5003;40756;-37.950;145.008;2023-06-22T08:14:29;3;2;
54869;PMS5003;40756;-37.950;145.008;2023-06-22T08:16:58;3;3;
54869;PMS5003;40756;-37.950;145.008;2023-06-22T08:19:28;4;4;
54869;PMS5003;40756;-37.950;145.008;2023-06-22T08:21:58;4;3;
54869;PMS5003;40756;-37.950;145.008;2023-06-22T08:24:27;4;4;
54869;PMS5003;40756;-37.950;145.008;2023-06-22T08:26:57;3;3;
54869;PMS5003;40756;-37.950;145.008;2023-06-22T08:29:27;5;5;
54869;PMS5003;40756;-37.950;145.008;2023-06-22T08:31:56;4;4;
54869;PMS5003;40756;-37.950;145.008;2023-06-22T08:34:26;5;5;
54869;PMS5003;40756;-37.950;145.008;2023-06-22T08:36:56;8;8;
54869;PMS5003;40756;-37.950;145.008;2023-06-22T08:39:26;16;16;
54869;PMS5003;40756;-37.950;145.008;2023-06-22T08:41:55;36;36;
54869;PMS5003;40756;-37.950;145.008;2023-06-22T08:44:25;8;8;
54869;PMS5003;40756;-37.950;145.008;2023-06-22T08:46:55;38;38;
54869;PMS5003;40756;-37.950;145.008;2023-06-22T08:49:24;14;14;
54869;PMS5003;40756;-37.950;145.008;2023-06-22T08:51:53;56;56;
54869;PMS5003;40756;-37.950;145.008;2023-06-22T08:54:22;14;14;
54869;PMS5003;40756;-37.950;145.008;2023-06-22T08:56:52;18;18;
54869;PMS5003;40756;-37.950;145.008;2023-06-22T08:59:21;34;34;
54869;PMS5003;40756;-37.950;145.008;2023-06-22T09:01:51;32;32;
54869;PMS5003;40756;-37.950;145.008;2023-06-22T09:04:20;17;16;
54869;PMS5003;40756;-37.950;145.008;2023-06-22T09:06:50;17;16;
54869;PMS5003;40756;-37.950;145.008;2023-06-22T09:09:21;19;19;
54869;PMS5003;40756;-37.950;145.008;2023-06-22T09:11:51;29;29;
54869;PMS5003;40756;-37.950;145.008;2023-06-22T09:14:21;16;15;
54869;PMS5003;40756;-37.950;145.008;2023-06-22T09:16:50;19;19;
54869;PMS5003;40756;-37.950;145.008;2023-06-22T09:19:19;28;28;
54869;PMS5003;40756;-37.950;145.008;2023-06-22T09:21:49;23;22;
54869;PMS5003;40756;-37.950;145.008;2023-06-22T09:24:19;29;29;
54869;PMS5003;40756;-37.950;145.008;2023-06-22T09:26:49;21;21;
54869;PMS5003;40756;-37.950;145.008;2023-06-22T09:29:19;19;19;
54869;PMS5003;40756;-37.950;145.008;2023-06-22T09:31:48;17;17;
54869;PMS5003;40756;-37.950;145.008;2023-06-22T09:34:18;8;8;
54869;PMS5003;40756;-37.950;145.008;2023-06-22T09:36:48;26;26;
54869;PMS5003;40756;-37.950;145.008;2023-06-22T09:39:17;11;10;
54869;PMS5003;40756;-37.950;145.008;2023-06-22T09:41:47;45;45;
54869;PMS5003;40756;-37.950;145.008;2023-06-22T09:44:16;19;19;
54869;PMS5003;40756;-37.950;145.008;2023-06-22T09:46:46;25;25;
54869;PMS5003;40756;-37.950;145.008;2023-06-22T09:49:15;23;22;
54869;PMS5003;40756;-37.950;145.008;2023-06-22T09:51:45;24;24;
54869;PMS5003;40756;-37.950;145.008;2023-06-22T09:54:14;14;14;
54869;PMS5003;40756;-37.950;145.008;2023-06-22T09:56:44;20;20;
54869;PMS5003;40756;-37.950;145.008;2023-06-22T09:59:14;19;19;
54869;PMS5003;40756;-37.950;145.008;2023-06-22T10:01:43;21;21;
54869;PMS5003;40756;-37.950;145.008;2023-06-22T10:04:13;35;35;
54869;PMS5003;40756;-37.950;145.008;2023-06-22T10:06:42;52;52;
54869;PMS5003;40756;-37.950;145.008;2023-06-22T10:09:12;7;7;
54869;PMS5003;40756;-37.950;145.008;2023-06-22T10:11:42;7;6;
54869;PMS5003;40756;-37.950;145.008;2023-06-22T10:14:11;6;6;
54869;PMS5003;40756;-37.950;145.008;2023-06-22T10:16:41;6;6;
54869;PMS5003;40756;-37.950;145.008;2023-06-22T10:19:11;6;6;
54869;PMS5003;40756;-37.950;145.008;2023-06-22T10:21:40;9;8;
54869;PMS5003;40756;-37.950;145.008;2023-06-22T10:24:10;8;7;
54869;PMS5003;40756;-37.950;145.008;2023-06-22T10:26:40;8;8;
54869;PMS5003;40756;-37.950;145.008;2023-06-22T10:29:10;8;8;
54869;PMS5003;40756;-37.950;145.008;2023-06-22T10:31:39;12;12;
54869;PMS5003;40756;-37.950;145.008;2023-06-22T10:34:09;11;10;
54869;PMS5003;40756;-37.950;145.008;2023-06-22T10:36:39;8;8;
54869;PMS5003;40756;-37.950;145.008;2023-06-22T10:39:09;11;10;
54869;PMS5003;40756;-37.950;145.008;2023-06-22T10:41:39;9;8;
54869;PMS5003;40756;-37.950;145.008;2023-06-22T10:44:08;8;8;
54869;PMS5003;40756;-37.950;145.008;2023-06-22T10:46:38;10;8;
54869;PMS5003;40756;-37.950;145.008;2023-06-22T10:49:08;8;8;
54869;PMS5003;40756;-37.950;145.008;2023-06-22T10:51:38;10;10;
54869;PMS5003;40756;-37.950;145.008;2023-06-22T10:54:07;11;11;
54869;PMS5003;40756;-37.950;145.008;2023-06-22T10:56:37;10;10;
54869;PMS5003;40756;-37.950;145.008;2023-06-22T10:59:07;10;10;
54869;PMS5003;40756;-37.950;145.008;2023-06-22T11:01:37;8;8;
54869;PMS5003;40756;-37.950;145.008;2023-06-22T11:04:06;6;6;
54869;PMS5003;40756;-37.950;145.008;2023-06-22T11:06:36;11;10;
54869;PMS5003;40756;-37.950;145.008;2023-06-22T11:09:05;15;14;
54869;PMS5003;40756;-37.950;145.008;2023-06-22T11:11:36;13;12;
54869;PMS5003;40756;-37.950;145.008;2023-06-22T11:14:06;12;12;
54869;PMS5003;40756;-37.950;145.008;2023-06-22T11:16:36;13;13;
54869;PMS5003;40756;-37.950;145.008;2023-06-22T11:19:06;25;25;
54869;PMS5003;40756;-37.950;145.008;2023-06-22T11:21:35;20;20;
54869;PMS5003;40756;-37.950;145.008;2023-06-22T11:24:06;21;21;
54869;PMS5003;40756;-37.950;145.008;2023-06-22T11:26:35;12;12;
54869;PMS5003;40756;-37.950;145.008;2023-06-22T11:29:05;15;14;
54869;PMS5003;40756;-37.950;145.008;2023-06-22T11:31:34;14;14;
54869;PMS5003;40756;-37.950;145.008;2023-06-22T11:34:04;18;17;
54869;PMS5003;40756;-37.950;145.008;2023-06-22T11:36:34;22;22;
54869;PMS5003;40756;-37.950;145.008;2023-06-22T11:39:03;17;17;
54869;PMS5003;40756;-37.950;145.008;2023-06-22T11:41:33;17;17;
54869;PMS5003;40756;-37.950;145.008;2023-06-22T11:44:03;17;16;
54869;PMS5003;40756;-37.950;145.008;2023-06-22T11:46:33;15;15;
54869;PMS5003;40756;-37.950;145.008;2023-06-22T11:49:02;14;13;
54869;PMS5003;40756;-37.950;145.008;2023-06-22T11:51:32;10;10;
54869;PMS5003;40756;-37.950;145.008;2023-06-22T11:54:02;11;10;
54869;PMS5003;40756;-37.950;145.008;2023-06-22T11:56:32;8;8;
54869;PMS5003;40756;-37.950;145.008;2023-06-22T11:59:01;6;6;
54869;PMS5003;40756;-37.950;145.008;2023-06-22T12:01:31;6;6;
54869;PMS5003;40756;-37.950;145.008;2023-06-22T12:04:01;8;7;
54869;PMS5003;40756;-37.950;145.008;2023-06-22T12:06:31;7;6;
54869;PMS5003;40756;-37.950;145.008;2023-06-22T12:09:01;4;4;
54869;PMS5003;40756;-37.950;145.008;2023-06-22T12:11:30;6;6;
54869;PMS5003;40756;-37.950;145.008;2023-06-22T12:14:01;5;4;
54869;PMS5003;40756;-37.950;145.008;2023-06-22T12:16:31;3;3;
54869;PMS5003;40756;-37.950;145.008;2023-06-22T12:19:00;3;3;
54869;PMS5003;40756;-37.950;145.008;2023-06-22T12:21:30;3;3;
54869;PMS5003;40756;-37.950;145.008;2023-06-22T12:24:00;2;2;
54869;PMS5003;40756;-37.950;145.008;2023-06-22T12:26:30;2;2;
54869;PMS5003;40756;-37.950;145.008;2023-06-22T12:29:00;2;2;
54869;PMS5003;40756;-37.950;145.008;2023-06-22T12:31:29;2;2;
54869;PMS5003;40756;-37.950;145.008;2023-06-22T12:33:59;1;1;
54869;PMS5003;40756;-37.950;145.008;2023-06-22T12:36:29;2;2;
54869;PMS5003;40756;-37.950;145.008;2023-06-22T12:38:59;2;2;
54869;PMS5003;40756;-37.950;145.008;2023-06-22T12:41:29;2;2;
54869;PMS5003;40756;-37.950;145.008;2023-06-22T12:43:58;3;3;
54869;PMS5003;40756;-37.950;145.008;2023-06-22T12:46:28;3;3;
54869;PMS5003;40756;-37.950;145.008;2023-06-22T12:48:58;2;2;
54869;PMS5003;40756;-37.950;145.008;2023-06-22T12:51:28;2;2;
54869;PMS5003;40756;-37.950;145.008;2023-06-22T12:53:58;4;3;
54869;PMS5003;40756;-37.950;145.008;2023-06-22T12:56:27;2;2;
54869;PMS5003;40756;-37.950;145.008;2023-06-22T12:58:57;3;3;
54869;PMS5003;40756;-37.950;145.008;2023-06-22T13:01:27;3;2;
54869;PMS5003;40756;-37.950;145.008;2023-06-22T13:03:57;3;3;
54869;PMS5003;40756;-37.950;145.008;2023-06-22T13:06:27;3;3;
54869;PMS5003;40756;-37.950;145.008;2023-06-22T13:08:56;5;5;
54869;PMS5003;40756;-37.950;145.008;2023-06-22T13:11:26;6;6;
54869;PMS5003;40756;-37.950;145.008;2023-06-22T13:13:56;4;4;
54869;PMS5003;40756;-37.950;145.008;2023-06-22T13:16:27;6;4;
54869;PMS5003;40756;-37.950;145.008;2023-06-22T13:18:57;5;5;
54869;PMS5003;40756;-37.950;145.008;2023-06-22T13:21:26;8;8;
54869;PMS5003;40756;-37.950;145.008;2023-06-22T13:23:56;7;7;
54869;PMS5003;40756;-37.950;145.008;2023-06-22T13:26:25;7;6;
54869;PMS5003;40756;-37.950;145.008;2023-06-22T13:28:55;7;7;
54869;PMS5003;40756;-37.950;145.008;2023-06-22T13:31:25;6;5;
54869;PMS5003;40756;-37.950;145.008;2023-06-22T13:33:55;7;7;
54869;PMS5003;40756;-37.950;145.008;2023-06-22T13:36:25;12;10;
54869;PMS5003;40756;-37.950;145.008;2023-06-22T13:38:54;9;9;
54869;PMS5003;40756;-37.950;145.008;2023-06-22T13:41:24;15;15;
54869;PMS5003;40756;-37.950;145.008;2023-06-22T13:43:54;19;18;
54869;PMS5003;40756;-37.950;145.008;2023-06-22T13:46:23;15;14;
54869;PMS5003;40756;-37.950;145.008;2023-06-22T13:48:52;11;11;
54869;PMS5003;40756;-37.950;145.008;2023-06-22T13:51:22;11;11;
54869;PMS5003;40756;-37.950;145.008;2023-06-22T13:53:52;14;13;
54869;PMS5003;40756;-37.950;145.008;2023-06-22T13:56:22;13;12;
54869;PMS5003;40756;-37.950;145.008;2023-06-22T13:58:52;7;7;
54869;PMS5003;40756;-37.950;145.008;2023-06-22T14:01:21;7;7;
54869;PMS5003;40756;-37.950;145.008;2023-06-22T14:03:51;8;8;
54869;PMS5003;40756;-37.950;145.008;2023-06-22T14:06:20;6;6;
54869;PMS5003;40756;-37.950;145.008;2023-06-22T14:08:50;5;5;
54869;PMS5003;40756;-37.950;145.008;2023-06-22T14:11:20;6;6;
54869;PMS5003;40756;-37.950;145.008;2023-06-22T14:13:50;4;4;
54869;PMS5003;40756;-37.950;145.008;2023-06-22T14:16:20;6;6;
54869;PMS5003;40756;-37.950;145.008;2023-06-22T14:18:50;4;4;
54869;PMS5003;40756;-37.950;145.008;2023-06-22T14:21:20;3;3;
54869;PMS5003;40756;-37.950;145.008;2023-06-22T14:23:49;3;3;
54869;PMS5003;40756;-37.950;145.008;2023-06-22T14:26:19;3;3;
54869;PMS5003;40756;-37.950;145.008;2023-06-22T14:28:49;6;4;
54869;PMS5003;40756;-37.950;145.008;2023-06-22T14:31:19;4;4;
54869;PMS5003;40756;-37.950;145.008;2023-06-22T14:33:49;4;3;
54869;PMS5003;40756;-37.950;145.008;2023-06-22T14:36:18;3;3;
54869;PMS5003;40756;-37.950;145.008;2023-06-22T14:38:48;4;3;
54869;PMS5003;40756;-37.950;145.008;2023-06-22T14:41:19;2;2;
54869;PMS5003;40756;-37.950;145.008;2023-06-22T14:43:48;2;2;
54869;PMS5003;40756;-37.950;145.008;2023-06-22T14:46:19;4;3;
54869;PMS5003;40756;-37.950;145.008;2023-06-22T14:48:49;4;4;
54869;PMS5003;40756;-37.950;145.008;2023-06-22T14:51:18;2;2;
54869;PMS5003;40756;-37.950;145.008;2023-06-22T14:53:48;3;2;
54869;PMS5003;40756;-37.950;145.008;2023-06-22T14:56:18;2;2;
54869;PMS5003;40756;-37.950;145.008;2023-06-22T14:58:48;1;1;
54869;PMS5003;40756;-37.950;145.008;2023-06-22T15:01:18;2;2;
54869;PMS5003;40756;-37.950;145.008;2023-06-22T15:03:48;2;2;
54869;PMS5003;40756;-37.950;145.008;2023-06-22T15:06:17;2;2;
54869;PMS5003;40756;-37.950;145.008;2023-06-22T15:08:47;3;3;
54869;PMS5003;40756;-37.950;145.008;2023-06-22T15:11:17;2;2;
54869;PMS5003;40756;-37.950;145.008;2023-06-22T15:13:48;2;2;
54869;PMS5003;40756;-37.950;145.008;2023-06-22T15:16:18;2;2;
54869;PMS5003;40756;-37.950;145.008;2023-06-22T15:18:47;2;2;
54869;PMS5003;40756;-37.950;145.008;2023-06-22T15:21:18;1;1;
54869;PMS5003;40756;-37.950;145.008;2023-06-22T15:23:49;2;2;
54869;PMS5003;40756;-37.950;145.008;2023-06-22T15:26:19;3;3;
54869;PMS5003;40756;-37.950;145.008;2023-06-22T15:28:48;2;2;
54869;PMS5003;40756;-37.950;145.008;2023-06-22T15:31:18;3;3;
54869;PMS5003;40756;-37.950;145.008;2023-06-22T15:33:48;3;3;
54869;PMS5003;40756;-37.950;145.008;2023-06-22T15:36:18;3;3;
54869;PMS5003;40756;-37.950;145.008;2023-06-22T15:38:48;2;2;
54869;PMS5003;40756;-37.950;145.008;2023-06-22T15:41:18;3;2;
54869;PMS5003;40756;-37.950;145.008;2023-06-22T15:43:47;1;1;
54869;PMS5003;40756;-37.950;145.008;2023-06-22T15:46:17;1;1;
54869;PMS5003;40756;-37.950;145.008;2023-06-22T15:48:47;2;2;
54869;PMS5003;40756;-37.950;145.008;2023-06-22T15:51:17;3;2;
54869;PMS5003;40756;-37.950;145.008;2023-06-22T15:53:47;3;3;
54869;PMS5003;40756;-37.950;145.008;2023-06-22T15:56:17;2;2;
54869;PMS5003;40756;-37.950;145.008;2023-06-22T15:58:46;2;2;
54869;PMS5003;40756;-37.950;145.008;2023-06-22T16:01:16;4;3;
54869;PMS5003;40756;-37.950;145.008;2023-06-22T16:03:46;1;1;
54869;PMS5003;40756;-37.950;145.008;2023-06-22T16:06:18;2;2;
54869;PMS5003;40756;-37.950;145.008;2023-06-22T16:08:48;1;1;
54869;PMS5003;40756;-37.950;145.008;2023-06-22T16:11:18;2;2;